Time;durP1;ratioP1;P1;durP2;ratioP2;P2;SDS_P1;SDS_P2;PMS_P1;PMS_P2;Temp;Humidity;BMP_temperature;BMP_pressure;BME280_temperature;BME280_humidity;BME280_pressure;Samples;Min_cycle;Max_cycle;Signal;HPM_P1;HPM_P2
2021/10/29 00:01:24;;;;;;;41.50;29.87;;;8.70;99.90;;;;;;5068077;28;20447;-67
2021/10/29 00:03:51;;;;;;;38.60;24.63;;;8.70;99.90;;;;;;5067915;28;20567;-67
2021/10/29 00:06:18;;;;;;;42.13;28.20;;;8.70;99.90;;;;;;5076386;28;20445;-67
2021/10/29 00:08:46;;;;;;;34.23;29.60;;;8.70;99.90;;;;;;5087805;28;20490;-68
2021/10/29 00:11:13;;;;;;;31.10;26.40;;;8.70;99.90;;;;;;5088154;28;20450;-68
2021/10/29 00:13:39;;;;;;;38.90;29.47;;;8.70;99.90;;;;;;5087933;28;20474;-68
2021/10/29 00:16:06;;;;;;;32.40;25.23;;;8.70;99.90;;;;;;5069865;28;20454;-68
2021/10/29 00:18:33;;;;;;;33.67;29.23;;;8.70;99.90;;;;;;5067549;28;20801;-68
2021/10/29 00:21:00;;;;;;;35.33;29.17;;;8.70;99.90;;;;;;5067660;28;20913;-68
2021/10/29 00:23:28;;;;;;;33.27;29.33;;;8.70;99.90;;;;;;5090183;22;20479;-64
2021/10/29 00:25:56;;;;;;;30.73;25.67;;;8.80;99.90;;;;;;5052354;28;20443;-64
2021/10/29 00:28:22;;;;;;;33.93;26.83;;;8.70;99.90;;;;;;5067242;28;21003;-64
2021/10/29 00:30:49;;;;;;;38.07;28.77;;;8.80;99.90;;;;;;5054036;28;20455;-64
2021/10/29 00:33:16;;;;;;;25.10;20.73;;;8.80;99.90;;;;;;5054733;28;20475;-63
2021/10/29 00:35:44;;;;;;;31.10;27.27;;;8.80;99.90;;;;;;5039959;28;20479;-64
2021/10/29 00:38:11;;;;;;;35.73;30.17;;;8.80;99.90;;;;;;5034640;28;20798;-64
2021/10/29 00:40:39;;;;;;;32.27;28.67;;;8.80;99.90;;;;;;5034637;28;20440;-63
2021/10/29 00:43:07;;;;;;;33.97;29.73;;;8.80;99.90;;;;;;5034413;28;20475;-63
2021/10/29 00:45:35;;;;;;;35.20;27.30;;;8.80;99.90;;;;;;5034362;28;20456;-64
2021/10/29 00:48:02;;;;;;;31.70;27.20;;;8.80;99.90;;;;;;5034377;28;21030;-64
2021/10/29 00:50:29;;;;;;;34.20;27.80;;;8.80;99.90;;;;;;5034410;28;20930;-63
2021/10/29 00:52:56;;;;;;;34.57;27.57;;;8.80;99.90;;;;;;5034337;28;20453;-63
2021/10/29 00:55:24;;;;;;;33.13;28.30;;;8.90;99.90;;;;;;5034401;28;20463;-64
2021/10/29 00:57:51;;;;;;;30.73;22.87;;;8.90;99.90;;;;;;5034316;28;20448;-63
2021/10/29 01:00:22;;;;;;;37.90;29.43;;;8.90;99.90;;;;;;5034442;28;20472;-64
2021/10/29 01:02:49;;;;;;;34.13;28.43;;;8.90;99.90;;;;;;5034110;28;20449;-64
2021/10/29 01:05:16;;;;;;;34.33;26.03;;;8.90;99.90;;;;;;5034208;28;20784;-64
2021/10/29 01:07:42;;;;;;;30.73;27.47;;;8.90;99.90;;;;;;5034155;28;20502;-63
2021/10/29 01:10:10;;;;;;;32.37;27.37;;;8.90;99.90;;;;;;5034197;28;20472;-64
2021/10/29 01:12:37;;;;;;;32.67;28.57;;;8.90;99.90;;;;;;5033851;28;20449;-64
2021/10/29 01:15:09;;;;;;;30.70;27.40;;;8.90;99.90;;;;;;5033930;28;20461;-64
2021/10/29 01:17:37;;;;;;;28.47;22.47;;;8.90;99.90;;;;;;5033967;28;20445;-64
2021/10/29 01:20:07;;;;;;;29.60;22.77;;;8.90;99.90;;;;;;5033629;28;20923;-64
2021/10/29 01:22:35;;;;;;;27.93;21.50;;;8.90;99.90;;;;;;5033719;28;20444;-63
2021/10/29 01:25:02;;;;;;;28.00;21.67;;;8.90;99.90;;;;;;5033336;28;20477;-64
2021/10/29 01:27:29;;;;;;;31.07;25.10;;;8.90;99.90;;;;;;5033601;28;20449;-64
2021/10/29 01:29:55;;;;;;;30.30;25.73;;;8.90;99.90;;;;;;5033494;28;20444;-64
2021/10/29 01:32:24;;;;;;;25.80;20.33;;;8.90;99.90;;;;;;5033544;28;20448;-64
2021/10/29 01:34:50;;;;;;;23.20;20.70;;;9.00;99.90;;;;;;5033336;28;20468;-62
2021/10/29 01:37:17;;;;;;;28.93;25.83;;;9.00;99.90;;;;;;5034021;28;20441;-60
2021/10/29 01:39:45;;;;;;;29.10;25.97;;;9.00;99.90;;;;;;5033521;28;20783;-62
2021/10/29 01:42:12;;;;;;;26.37;20.77;;;9.10;99.90;;;;;;5032468;28;20525;-63
2021/10/29 01:44:40;;;;;;;24.77;20.33;;;9.10;99.90;;;;;;5033136;28;20476;-63
2021/10/29 01:47:06;;;;;;;26.17;21.10;;;9.10;99.90;;;;;;5033341;28;20783;-63
2021/10/29 01:49:33;;;;;;;29.13;25.13;;;9.10;99.90;;;;;;5033231;28;20504;-63
2021/10/29 01:52:00;;;;;;;28.03;22.63;;;9.10;99.90;;;;;;5033124;28;20953;-63
2021/10/29 01:54:27;;;;;;;23.13;20.83;;;9.10;99.90;;;;;;5033143;28;20464;-63
2021/10/29 01:56:56;;;;;;;22.17;19.23;;;9.10;99.90;;;;;;5033088;28;20536;-63
2021/10/29 01:59:23;;;;;;;28.80;21.87;;;9.10;99.90;;;;;;5032863;28;20449;-63
2021/10/29 02:01:49;;;;;;;26.77;24.00;;;9.10;99.90;;;;;;5032904;28;20445;-63
2021/10/29 02:04:16;;;;;;;29.37;24.83;;;9.10;99.90;;;;;;5032668;28;20465;-63
2021/10/29 02:06:43;;;;;;;28.23;22.37;;;9.10;99.90;;;;;;5032883;28;20816;-64
2021/10/29 02:09:09;;;;;;;26.90;23.93;;;9.10;99.90;;;;;;5032746;28;20512;-63
2021/10/29 02:11:36;;;;;;;27.97;24.77;;;9.10;99.90;;;;;;5032989;28;20449;-64
2021/10/29 02:14:04;;;;;;;28.40;21.40;;;9.10;99.90;;;;;;5032543;28;20465;-63
2021/10/29 02:16:31;;;;;;;24.13;20.37;;;9.10;99.90;;;;;;5032886;28;20804;-63
2021/10/29 02:18:58;;;;;;;30.77;21.43;;;9.10;99.90;;;;;;5032507;28;20444;-63
2021/10/29 02:21:25;;;;;;;25.13;20.43;;;9.10;99.90;;;;;;5032660;28;20457;-63
2021/10/29 02:23:51;;;;;;;27.23;24.13;;;9.10;99.90;;;;;;5032378;28;20985;-62
2021/10/29 02:26:18;;;;;;;28.40;23.10;;;9.10;99.90;;;;;;5032684;28;20849;-63
2021/10/29 02:28:45;;;;;;;29.07;22.57;;;9.10;99.90;;;;;;5032480;28;20489;-63
2021/10/29 02:31:13;;;;;;;29.00;25.73;;;9.10;99.90;;;;;;5032348;28;20449;-62
2021/10/29 02:33:41;;;;;;;26.63;18.90;;;9.10;99.90;;;;;;5032510;28;20465;-63
2021/10/29 02:36:07;;;;;;;23.73;21.20;;;9.10;99.90;;;;;;5032493;28;20445;-62
2021/10/29 02:38:34;;;;;;;26.57;22.27;;;9.10;99.90;;;;;;5032264;28;20559;-63
2021/10/29 02:41:01;;;;;;;26.77;23.50;;;9.10;99.90;;;;;;5032448;28;20934;-63
2021/10/29 02:43:28;;;;;;;27.60;23.60;;;9.10;99.90;;;;;;5032438;28;20483;-63
2021/10/29 02:45:55;;;;;;;26.00;21.93;;;9.10;99.90;;;;;;5032286;28;20532;-64
2021/10/29 02:48:23;;;;;;;21.73;19.40;;;9.10;99.90;;;;;;5031999;28;20500;-63
2021/10/29 02:50:50;;;;;;;34.30;24.77;;;9.10;99.90;;;;;;5031988;28;20449;-63
2021/10/29 02:53:17;;;;;;;24.93;21.57;;;9.10;99.90;;;;;;5032155;28;20469;-63
2021/10/29 02:55:44;;;;;;;21.67;19.37;;;9.10;99.90;;;;;;5032143;28;20456;-63
2021/10/29 02:58:11;;;;;;;21.60;19.27;;;9.10;99.90;;;;;;5032090;28;20544;-63
2021/10/29 03:00:37;;;;;;;26.13;22.80;;;9.10;99.90;;;;;;5031984;28;20453;-64
2021/10/29 03:03:05;;;;;;;26.07;22.83;;;9.10;99.90;;;;;;5031817;28;20834;-63
2021/10/29 03:05:36;;;;;;;24.90;21.80;;;9.10;99.90;;;;;;5032143;28;20445;-63
2021/10/29 03:08:03;;;;;;;26.70;23.53;;;9.10;99.90;;;;;;5031817;28;20453;-63
2021/10/29 03:10:30;;;;;;;29.70;25.27;;;9.00;99.90;;;;;;5031743;28;20449;-63
2021/10/29 03:12:56;;;;;;;26.73;24.13;;;9.10;99.90;;;;;;5031744;28;20437;-63
2021/10/29 03:15:23;;;;;;;27.97;21.90;;;9.10;99.90;;;;;;5031873;28;20922;-63
2021/10/29 03:17:50;;;;;;;26.70;24.00;;;9.10;99.90;;;;;;5031649;28;20445;-64
2021/10/29 03:20:16;;;;;;;24.77;22.20;;;9.10;99.90;;;;;;5031686;28;20441;-63
2021/10/29 03:22:45;;;;;;;23.43;20.63;;;9.10;99.90;;;;;;5031238;28;20972;-63
2021/10/29 03:25:11;;;;;;;28.83;25.80;;;9.10;99.90;;;;;;5031587;28;20449;-63
2021/10/29 03:27:38;;;;;;;28.40;22.17;;;9.10;99.90;;;;;;5031661;28;20445;-63
2021/10/29 03:30:06;;;;;;;28.40;19.97;;;9.10;99.90;;;;;;5031424;28;20477;-63
2021/10/29 03:32:33;;;;;;;27.90;22.70;;;9.10;99.90;;;;;;5031656;28;20448;-63
2021/10/29 03:35:00;;;;;;;26.63;21.10;;;9.10;99.90;;;;;;5031484;28;20485;-63
2021/10/29 03:37:53;;;;;;;28.27;22.83;;;9.20;99.90;;;;;;5031584;28;20552;-64
2021/10/29 03:40:26;;;;;;;27.77;24.43;;;9.20;99.90;;;;;;5031456;28;20520;-63
2021/10/29 03:43:03;;;;;;;24.73;19.80;;;9.20;99.90;;;;;;5031512;28;20472;-64
2021/10/29 03:45:30;;;;;;;28.80;24.07;;;9.20;99.90;;;;;;5031672;28;20784;-64
2021/10/29 03:47:59;;;;;;;27.17;24.37;;;9.20;99.90;;;;;;5031475;28;20481;-64
2021/10/29 03:50:28;;;;;;;27.30;20.40;;;9.20;99.90;;;;;;5031377;28;20566;-63
2021/10/29 03:52:59;;;;;;;26.43;21.30;;;9.30;99.90;;;;;;5031549;28;20444;-63
2021/10/29 03:55:33;;;;;;;26.50;21.00;;;9.30;99.90;;;;;;5031650;28;20484;-63
2021/10/29 03:58:00;;;;;;;25.60;22.80;;;9.30;99.90;;;;;;5031381;28;20524;-63
2021/10/29 04:00:29;;;;;;;28.47;25.43;;;9.30;99.90;;;;;;5031281;28;20441;-62
2021/10/29 04:03:00;;;;;;;26.10;23.30;;;9.30;99.90;;;;;;5031554;28;20447;-63
2021/10/29 04:05:27;;;;;;;26.50;21.00;;;9.30;99.90;;;;;;5034284;28;20483;-63
2021/10/29 04:07:54;;;;;;;26.80;23.23;;;9.30;99.90;;;;;;5035036;28;20495;-63
2021/10/29 04:10:24;;;;;;;25.70;21.00;;;9.30;99.90;;;;;;5034926;28;20473;-63
2021/10/29 04:12:53;;;;;;;24.13;21.17;;;9.30;99.90;;;;;;5035113;28;20810;-63
2021/10/29 04:15:20;;;;;;;24.00;21.40;;;9.30;99.90;;;;;;5035090;28;20448;-63
2021/10/29 04:17:47;;;;;;;25.37;22.13;;;9.30;99.90;;;;;;5035127;28;20813;-63
2021/10/29 04:20:13;;;;;;;27.17;22.90;;;9.30;99.90;;;;;;5034516;28;20449;-63
2021/10/29 04:22:41;;;;;;;29.83;22.93;;;9.30;99.90;;;;;;5034709;28;20452;-63
2021/10/29 04:25:08;;;;;;;25.83;21.97;;;9.30;99.90;;;;;;5034782;28;20942;-63
2021/10/29 04:27:42;;;;;;;26.93;24.50;;;9.30;99.90;;;;;;5034783;28;20440;-63
2021/10/29 04:30:14;;;;;;;26.33;23.03;;;9.30;99.90;;;;;;5034577;28;20480;-63
2021/10/29 04:32:41;;;;;;;27.40;24.60;;;9.30;99.90;;;;;;5034680;28;20452;-63
2021/10/29 04:35:10;;;;;;;29.07;26.03;;;9.40;99.90;;;;;;5034773;28;20440;-64
2021/10/29 04:37:37;;;;;;;24.87;22.30;;;9.40;99.90;;;;;;5034567;28;20831;-63
2021/10/29 04:40:04;;;;;;;24.00;21.60;;;9.40;99.90;;;;;;5034234;28;20449;-62
2021/10/29 04:42:31;;;;;;;26.07;23.57;;;9.40;99.90;;;;;;5034487;28;20926;-63
2021/10/29 04:44:58;;;;;;;30.60;24.93;;;9.40;99.90;;;;;;5034528;28;20538;-62
2021/10/29 04:47:26;;;;;;;26.03;23.23;;;9.40;99.90;;;;;;5034253;28;20449;-63
2021/10/29 04:49:53;;;;;;;28.77;22.40;;;9.40;99.90;;;;;;5033686;28;20477;-64
2021/10/29 04:52:20;;;;;;;28.47;24.87;;;9.40;99.90;;;;;;5033969;28;20456;-64
2021/10/29 04:54:46;;;;;;;29.90;26.83;;;9.40;99.90;;;;;;5033992;28;20469;-64
2021/10/29 04:57:13;;;;;;;29.97;26.73;;;9.40;99.90;;;;;;5034220;28;20453;-63
2021/10/29 04:59:40;;;;;;;28.30;24.30;;;9.40;99.90;;;;;;5033869;28;20448;-65
2021/10/29 05:02:07;;;;;;;27.90;25.20;;;9.40;99.90;;;;;;5034052;28;20441;-64
2021/10/29 05:04:35;;;;;;;28.27;23.37;;;9.40;99.90;;;;;;5034113;28;20469;-64
2021/10/29 05:07:02;;;;;;;26.00;23.23;;;9.40;99.90;;;;;;5033959;28;20476;-64
2021/10/29 05:09:28;;;;;;;29.37;26.30;;;9.40;99.90;;;;;;5033582;28;20480;-64
2021/10/29 05:11:55;;;;;;;25.37;22.47;;;9.40;99.90;;;;;;5034061;28;20453;-64
2021/10/29 05:14:22;;;;;;;27.10;24.50;;;9.40;99.90;;;;;;5033878;28;20464;-65
2021/10/29 05:16:50;;;;;;;31.60;28.37;;;9.40;99.90;;;;;;5033913;28;20448;-64
2021/10/29 05:19:17;;;;;;;31.10;28.20;;;9.40;99.90;;;;;;5033120;28;20438;-64
2021/10/29 05:21:45;;;;;;;30.10;26.97;;;9.30;99.90;;;;;;5033482;28;20472;-63
2021/10/29 05:24:11;;;;;;;27.67;24.13;;;9.40;99.90;;;;;;5033451;28;20480;-64
2021/10/29 05:26:39;;;;;;;28.43;24.27;;;9.40;99.90;;;;;;5033608;28;20441;-63
2021/10/29 05:29:06;;;;;;;26.97;24.43;;;9.40;99.90;;;;;;5033138;28;20480;-63
2021/10/29 05:31:32;;;;;;;29.10;26.30;;;9.40;99.90;;;;;;5033638;28;20448;-63
2021/10/29 05:33:59;;;;;;;25.93;23.30;;;9.40;99.90;;;;;;5033456;28;20873;-63
2021/10/29 05:36:26;;;;;;;29.57;24.20;;;9.40;99.90;;;;;;5033397;28;20452;-64
2021/10/29 05:38:54;;;;;;;28.60;25.83;;;9.40;99.90;;;;;;5032927;28;20453;-63
2021/10/29 05:41:20;;;;;;;25.63;22.53;;;9.50;99.90;;;;;;5033183;28;20441;-63
2021/10/29 05:43:47;;;;;;;27.37;24.53;;;9.50;99.90;;;;;;5033268;28;20461;-63
2021/10/29 05:46:14;;;;;;;28.37;25.37;;;9.50;99.90;;;;;;5033385;28;20445;-63
2021/10/29 05:48:41;;;;;;;28.77;25.97;;;9.50;99.90;;;;;;5033020;28;20939;-63
2021/10/29 05:51:10;;;;;;;28.53;25.40;;;9.60;99.90;;;;;;5032834;28;20481;-63
2021/10/29 05:53:41;;;;;;;27.17;24.20;;;9.60;99.90;;;;;;5033187;28;20472;-63
2021/10/29 05:56:09;;;;;;;26.73;24.07;;;9.60;99.90;;;;;;5033135;28;20448;-63
2021/10/29 05:58:36;;;;;;;30.63;24.20;;;9.60;99.90;;;;;;5032919;28;20441;-63
2021/10/29 06:01:04;;;;;;;29.60;26.73;;;9.70;99.90;;;;;;5032927;28;20922;-63
2021/10/29 06:03:30;;;;;;;26.60;23.97;;;9.70;99.90;;;;;;5032854;28;20849;-63
2021/10/29 06:05:57;;;;;;;27.50;24.73;;;9.70;99.90;;;;;;5032609;28;20960;-63
2021/10/29 06:08:24;;;;;;;31.10;27.90;;;9.70;99.90;;;;;;5032929;28;20452;-63
2021/10/29 06:10:51;;;;;;;32.40;29.33;;;9.70;99.90;;;;;;5032717;28;20484;-63
2021/10/29 06:13:20;;;;;;;28.03;24.03;;;9.70;99.90;;;;;;5032645;28;20468;-63
2021/10/29 06:15:47;;;;;;;29.23;26.07;;;9.70;99.90;;;;;;5032379;28;20458;-63
2021/10/29 06:18:22;;;;;;;26.03;23.63;;;9.70;99.90;;;;;;5032559;28;20964;-63
2021/10/29 06:20:50;;;;;;;26.93;24.60;;;9.70;99.90;;;;;;5032083;28;20476;-64
2021/10/29 06:23:19;;;;;;;26.43;23.97;;;9.70;99.90;;;;;;5071955;22;20464;-61
2021/10/29 06:25:47;;;;;;;25.50;23.07;;;9.70;99.90;;;;;;5031948;28;20433;-58
2021/10/29 06:28:24;;;;;;;28.77;25.90;;;9.70;99.90;;;;;;5012772;28;20492;-59
2021/10/29 06:30:52;;;;;;;27.30;24.50;;;9.70;99.90;;;;;;5012341;28;20979;-59
2021/10/29 06:33:20;;;;;;;27.43;24.73;;;9.70;99.90;;;;;;5012220;28;20438;-59
2021/10/29 06:35:48;;;;;;;24.40;21.93;;;9.70;99.90;;;;;;5024158;28;20818;-59
2021/10/29 06:38:15;;;;;;;29.90;27.20;;;9.70;99.90;;;;;;5031469;28;20441;-58
2021/10/29 06:40:43;;;;;;;30.30;27.30;;;9.70;99.90;;;;;;5031958;28;20444;-57
2021/10/29 06:43:14;;;;;;;26.60;24.20;;;9.80;99.90;;;;;;5031788;28;20457;-60
2021/10/29 06:48:33;;;;;;;25.27;22.93;;;9.80;99.90;;;;;;5029113;28;20432;-60
2021/10/29 06:59:19;;;;;;;23.73;21.50;;;9.90;99.90;;;;;;5013003;28;20449;-61
2021/10/29 07:01:51;;;;;;;24.73;22.63;;;9.90;99.90;;;;;;5012601;28;20540;-61
2021/10/29 07:40:42;;;;;;;23.53;21.40;;;10.60;99.90;;;;;;4993886;28;21118;-61
2021/10/29 07:43:11;;;;;;;21.73;20.03;;;10.70;99.90;;;;;;5015451;28;20445;-60
2021/10/29 07:45:38;;;;;;;22.47;20.57;;;10.80;99.90;;;;;;5015574;28;20866;-59
2021/10/29 07:48:05;;;;;;;23.97;21.77;;;10.90;99.90;;;;;;5022789;28;20448;-63
2021/10/29 07:50:32;;;;;;;22.70;20.77;;;11.00;99.90;;;;;;5034919;28;20538;-62
2021/10/29 07:53:01;;;;;;;23.07;21.37;;;11.10;99.90;;;;;;5034995;28;20452;-61
2021/10/29 07:55:30;;;;;;;23.90;22.10;;;11.10;99.90;;;;;;5031368;28;20810;-63
2021/10/29 07:58:01;;;;;;;21.97;20.17;;;11.20;99.90;;;;;;5016590;28;20453;-62
2021/10/29 08:00:27;;;;;;;22.67;20.97;;;11.30;99.90;;;;;;5003744;28;20446;-61
2021/10/29 08:02:54;;;;;;;22.00;20.37;;;11.40;99.90;;;;;;5003663;28;20453;-62
2021/10/29 08:05:21;;;;;;;24.43;22.63;;;11.40;99.90;;;;;;5003513;28;21373;-63
2021/10/29 08:07:49;;;;;;;22.77;21.07;;;11.40;99.90;;;;;;5003500;28;20457;-62
2021/10/29 08:10:18;;;;;;;22.67;21.00;;;11.40;99.90;;;;;;5015137;28;20480;-62
2021/10/29 08:12:45;;;;;;;22.33;20.60;;;11.50;99.90;;;;;;5022762;28;20756;-63
2021/10/29 08:15:12;;;;;;;24.53;22.53;;;11.60;99.90;;;;;;5023136;28;20468;-63
2021/10/29 08:17:40;;;;;;;21.90;20.20;;;11.60;99.90;;;;;;5023185;28;20448;-63
2021/10/29 08:20:10;;;;;;;22.67;20.80;;;11.60;99.90;;;;;;5023014;28;20813;-62
2021/10/29 08:22:37;;;;;;;24.03;22.27;;;11.60;99.90;;;;;;5013617;28;20453;-63
2021/10/29 08:25:05;;;;;;;23.00;21.20;;;11.60;99.90;;;;;;5003076;28;20484;-62
2021/10/29 08:27:34;;;;;;;24.83;22.93;;;11.70;99.90;;;;;;5023992;28;20618;-63
2021/10/29 08:30:00;;;;;;;24.17;22.17;;;11.70;99.90;;;;;;5033877;28;20480;-63
2021/10/29 08:32:27;;;;;;;22.37;20.87;;;11.70;99.90;;;;;;5034311;28;20445;-62
2021/10/29 08:34:55;;;;;;;22.87;21.37;;;11.60;99.90;;;;;;5034248;28;20465;-62
2021/10/29 08:37:27;;;;;;;23.63;21.87;;;11.70;99.90;;;;;;5034311;28;20453;-62
2021/10/29 08:39:53;;;;;;;23.50;21.60;;;11.70;99.90;;;;;;5034253;28;20445;-62
2021/10/29 08:42:21;;;;;;;22.50;20.90;;;11.80;99.90;;;;;;5034164;28;20827;-62
2021/10/29 08:44:49;;;;;;;23.07;21.37;;;11.80;99.90;;;;;;5034199;28;20471;-63
2021/10/29 08:47:21;;;;;;;25.03;23.00;;;11.90;99.90;;;;;;5034195;28;20469;-62
2021/10/29 08:49:49;;;;;;;24.67;22.87;;;12.00;99.90;;;;;;5033274;28;20953;-62
2021/10/29 08:52:20;;;;;;;24.03;22.13;;;12.10;99.90;;;;;;5034104;28;20453;-63
2021/10/29 08:54:48;;;;;;;23.50;21.47;;;12.30;99.90;;;;;;5033936;28;20543;-62
2021/10/29 08:57:15;;;;;;;23.27;21.60;;;12.30;99.90;;;;;;5033916;28;20471;-62
2021/10/29 08:59:41;;;;;;;25.13;23.10;;;12.40;99.90;;;;;;5033872;28;20942;-62
2021/10/29 09:02:13;;;;;;;23.90;22.37;;;12.50;99.90;;;;;;5033916;28;20442;-62
2021/10/29 09:04:46;;;;;;;26.33;23.67;;;12.50;99.90;;;;;;5033794;28;20480;-63
2021/10/29 09:07:22;;;;;;;25.40;23.30;;;12.60;99.90;;;;;;5033965;28;20537;-62
2021/10/29 09:10:07;;;;;;;24.70;22.90;;;12.70;99.90;;;;;;5033449;28;20448;-62
2021/10/29 09:32:25;;;;;;;24.57;22.70;;;13.90;99.90;;;;;;5033212;28;20471;-61
2021/10/29 09:34:58;;;;;;;24.40;22.63;;;14.10;99.90;;;;;;5033360;28;20461;-61
2021/10/29 09:37:34;;;;;;;24.67;22.83;;;14.30;99.90;;;;;;5021037;28;20444;-63
2021/10/29 09:40:02;;;;;;;24.10;22.23;;;14.40;99.90;;;;;;5018546;28;20599;-63
2021/10/29 09:42:35;;;;;;;24.43;22.70;;;14.50;99.90;;;;;;5021433;28;20555;-61
2021/10/29 09:45:12;;;;;;;24.37;22.70;;;14.60;99.90;;;;;;5021343;28;20515;-62
2021/10/29 09:47:40;;;;;;;25.20;23.50;;;14.80;99.90;;;;;;5017951;28;20446;-61
2021/10/29 09:50:14;;;;;;;23.23;21.73;;;15.00;99.90;;;;;;5001410;28;20449;-62
2021/10/29 09:53:00;;;;;;;23.50;22.20;;;15.00;99.90;;;;;;5001633;28;21047;-60
2021/10/29 09:55:47;;;;;;;24.43;22.93;;;15.10;99.90;;;;;;5002131;28;20449;-60
2021/10/29 09:58:15;;;;;;;24.90;23.23;;;15.30;99.90;;;;;;5009471;28;20457;-62
2021/10/29 10:00:43;;;;;;;23.40;21.90;;;15.50;99.90;;;;;;5020800;28;20448;-60
2021/10/29 10:03:10;;;;;;;24.30;22.67;;;15.60;99.90;;;;;;5020369;28;20485;-62
2021/10/29 10:05:39;;;;;;;23.30;21.97;;;15.60;99.90;;;;;;5021372;28;20456;-60
2021/10/29 10:08:06;;;;;;;24.97;23.40;;;15.60;99.90;;;;;;5014476;28;20876;-63
2021/10/29 10:10:34;;;;;;;23.87;22.57;;;15.70;99.90;;;;;;5001149;28;20508;-60
2021/10/29 10:13:01;;;;;;;24.30;22.90;;;15.70;99.90;;;;;;5001190;28;20562;-62
2021/10/29 10:15:29;;;;;;;24.80;23.30;;;16.00;99.90;;;;;;5001305;28;20479;-60
2021/10/29 10:17:58;;;;;;;23.03;21.80;;;16.10;99.90;;;;;;5005684;28;20449;-61
2021/10/29 10:20:28;;;;;;;24.17;22.90;;;16.10;99.90;;;;;;5020858;28;20449;-62
2021/10/29 10:22:57;;;;;;;24.07;22.30;;;16.10;99.90;;;;;;5020689;28;20532;-62
2021/10/29 10:25:43;;;;;;;23.73;22.23;;;16.10;99.90;;;;;;5020599;28;20855;-60
2021/10/29 10:31:18;;;;;;;23.07;21.80;;;16.40;99.90;;;;;;4939592;29;20526;-61
2021/10/29 10:42:52;;;;;;;22.07;20.97;;;17.40;99.90;;;;;;5000909;28;20892;-59
2021/10/29 10:45:40;;;;;;;22.93;21.73;;;17.30;99.90;;;;;;5000846;28;20474;-62
2021/10/29 10:48:11;;;;;;;25.00;23.50;;;17.40;99.90;;;;;;5006331;28;20461;-61
2021/10/29 10:50:43;;;;;;;24.37;23.03;;;17.40;99.90;;;;;;5020304;28;20484;-60
2021/10/29 10:53:23;;;;;;;23.73;22.20;;;17.40;99.90;;;;;;5020293;28;20484;-61
2021/10/29 11:10:14;;;;;;;23.67;22.40;;;17.30;99.90;;;;;;5097746;27;21063;-62
2021/10/29 11:13:07;;;;;;;24.00;22.60;;;17.90;99.90;;;;;;5097452;28;20436;-62
2021/10/29 11:15:34;;;;;;;23.07;21.87;;;18.00;99.90;;;;;;5077721;28;20477;-62
2021/10/29 11:18:02;;;;;;;22.97;21.87;;;18.60;99.90;;;;;;5076898;28;20455;-62
2021/10/29 11:20:43;;;;;;;23.43;22.13;;;19.60;99.20;;;;;;5076645;28;20451;-60
2021/10/29 11:23:12;;;;;;;23.43;22.20;;;20.30;95.50;;;;;;5076508;28;20541;-61
2021/10/29 11:25:52;;;;;;;23.70;22.30;;;20.00;94.60;;;;;;5077169;28;20457;-61
2021/10/29 11:28:21;;;;;;;22.63;21.53;;;20.80;93.50;;;;;;5076733;28;20482;-61
2021/10/29 11:30:48;;;;;;;21.80;20.70;;;20.50;91.20;;;;;;5076608;28;20860;-61
2021/10/29 11:33:16;;;;;;;24.27;22.40;;;20.30;91.30;;;;;;5076857;28;20447;-57
2021/10/29 11:35:58;;;;;;;23.73;22.47;;;19.70;92.50;;;;;;5076900;28;20459;-61
2021/10/29 11:38:25;;;;;;;23.30;21.70;;;19.60;92.40;;;;;;5076588;28;20477;-63
2021/10/29 11:40:53;;;;;;;22.90;21.70;;;19.50;93.10;;;;;;5076465;28;20450;-60
2021/10/29 11:43:25;;;;;;;22.37;21.30;;;19.30;94.30;;;;;;5076609;28;20545;-63
2021/10/29 11:45:52;;;;;;;23.03;21.93;;;19.20;93.90;;;;;;5076610;28;20533;-62
2021/10/29 11:48:19;;;;;;;22.53;21.40;;;18.90;94.60;;;;;;5076316;28;20844;-61
2021/10/29 11:50:46;;;;;;;22.80;21.70;;;18.90;95.00;;;;;;5076386;28;20916;-59
2021/10/29 11:53:14;;;;;;;22.00;20.90;;;18.90;95.10;;;;;;5076622;28;20457;-60
2021/10/29 11:55:45;;;;;;;22.53;21.43;;;19.20;94.80;;;;;;5076423;28;20464;-59
2021/10/29 11:58:20;;;;;;;22.70;21.50;;;19.20;94.40;;;;;;5075993;28;20455;-63
2021/10/29 12:00:55;;;;;;;21.63;20.63;;;19.40;94.30;;;;;;5076017;28;20449;-60
2021/10/29 12:06:17;;;;;;;22.27;21.27;;;20.20;92.70;;;;;;5076531;28;20453;-59
2021/10/29 12:08:44;;;;;;;22.13;20.90;;;21.00;91.10;;;;;;5075959;28;20512;-61
2021/10/29 12:11:10;;;;;;;22.60;21.30;;;21.90;87.30;;;;;;5076003;28;20489;-61
2021/10/29 12:13:40;;;;;;;21.83;20.83;;;22.90;80.70;;;;;;5076296;28;21263;-62
2021/10/29 12:16:19;;;;;;;21.90;20.90;;;23.90;75.70;;;;;;5076169;28;20451;-62
2021/10/29 12:18:56;;;;;;;23.57;22.40;;;24.60;69.00;;;;;;5075944;28;20446;-60
2021/10/29 12:21:24;;;;;;;22.00;21.10;;;24.60;64.60;;;;;;5063086;28;20489;-61
2021/10/29 12:23:52;;;;;;;22.23;21.10;;;24.20;63.10;;;;;;5071892;22;20488;-64
2021/10/29 12:26:21;;;;;;;22.30;21.30;;;23.90;63.20;;;;;;5019181;28;20446;-65
2021/10/29 12:28:51;;;;;;;22.20;21.30;;;23.40;62.90;;;;;;5016372;28;21080;-64
2021/10/29 12:31:31;;;;;;;22.20;21.10;;;22.70;64.50;;;;;;5022978;28;21068;-64
2021/10/29 12:37:22;;;;;;;22.07;21.10;;;21.60;70.10;;;;;;5023192;28;20488;-64
2021/10/29 12:54:34;;;;;;;21.57;20.60;;;20.00;81.50;;;;;;5022599;28;20444;-64
2021/10/29 13:02:31;;;;;;;20.73;19.93;;;19.60;84.80;;;;;;5034783;28;20428;-63
2021/10/29 13:04:59;;;;;;;22.30;21.23;;;19.60;85.80;;;;;;5034745;28;20474;-64
2021/10/29 13:07:27;;;;;;;23.10;21.87;;;19.70;86.20;;;;;;5035006;28;20819;-63
2021/10/29 13:10:05;;;;;;;20.80;19.90;;;19.70;85.80;;;;;;5034838;28;20865;-63
2021/10/29 13:12:41;;;;;;;22.10;21.10;;;19.70;86.00;;;;;;5034771;28;20445;-63
2021/10/29 13:15:12;;;;;;;22.20;21.20;;;20.30;85.40;;;;;;5034656;28;20469;-64
2021/10/29 13:17:47;;;;;;;21.03;20.23;;;20.90;81.60;;;;;;5034543;28;20507;-64
2021/10/29 13:20:37;;;;;;;22.53;21.47;;;21.70;78.80;;;;;;5033722;28;20444;-64
2021/10/29 13:23:30;;;;;;;22.30;21.40;;;23.90;74.40;;;;;;5033486;28;20445;-64
2021/10/29 13:26:25;;;;;;;23.67;22.67;;;26.30;62.30;;;;;;5033591;28;20437;-64
2021/10/29 13:28:57;;;;;;;22.77;21.87;;;27.70;54.90;;;;;;5033370;28;20847;-65
2021/10/29 13:34:46;;;;;;;22.70;21.80;;;28.90;48.80;;;;;;5034121;28;20463;-64
2021/10/29 13:37:18;;;;;;;23.07;22.17;;;28.90;47.00;;;;;;5033528;28;20522;-64
2021/10/29 13:51:07;;;;;;;22.80;21.80;;;29.00;45.20;;;;;;5032859;28;20841;-63
2021/10/29 13:53:47;;;;;;;23.70;22.50;;;29.30;44.70;;;;;;5032472;28;20456;-64
2021/10/29 13:56:20;;;;;;;23.93;22.83;;;28.90;44.20;;;;;;5032865;28;20457;-64
2021/10/29 14:02:03;;;;;;;22.67;21.67;;;28.90;44.20;;;;;;5033079;28;20416;-64
2021/10/29 14:29:15;;;;;;;21.87;20.87;;;22.30;56.40;;;;;;5032406;28;21114;-64
2021/10/29 14:31:46;;;;;;;22.03;21.03;;;21.90;57.70;;;;;;5033102;28;20951;-64
2021/10/29 14:34:16;;;;;;;21.77;20.80;;;21.60;58.80;;;;;;5032603;28;21063;-64
2021/10/29 14:36:52;;;;;;;22.53;21.33;;;21.20;60.60;;;;;;5033078;28;20441;-63
2021/10/29 14:39:27;;;;;;;22.57;21.23;;;21.00;62.60;;;;;;5032982;28;20449;-64
2021/10/29 14:42:12;;;;;;;21.40;20.50;;;21.30;64.70;;;;;;5033139;28;20484;-64
2021/10/29 14:44:44;;;;;;;21.93;20.83;;;21.40;64.60;;;;;;5032143;28;20568;-64
2021/10/29 14:47:23;;;;;;;22.00;20.70;;;21.10;66.10;;;;;;5032823;28;20449;-64
2021/10/29 14:49:58;;;;;;;22.10;21.10;;;20.80;67.00;;;;;;5032290;28;20512;-64
2021/10/29 14:52:50;;;;;;;22.23;21.30;;;20.40;69.20;;;;;;5032398;28;20456;-64
2021/10/29 15:15:28;;;;;;;22.27;21.27;;;18.80;89.80;;;;;;5032631;28;20830;-62
2021/10/29 15:18:05;;;;;;;21.30;20.40;;;18.70;91.10;;;;;;5032825;28;20517;-63
2021/10/29 15:28:59;;;;;;;20.60;19.70;;;18.10;95.30;;;;;;5026497;28;20436;-63
2021/10/29 15:31:38;;;;;;;20.60;19.70;;;18.00;96.60;;;;;;5029289;28;20818;-64
2021/10/29 15:42:31;;;;;;;20.50;19.60;;;17.50;99.90;;;;;;5031256;28;20444;-64
2021/10/29 15:45:15;;;;;;;20.33;19.33;;;17.30;99.90;;;;;;5012276;28;20874;-64
2021/10/29 15:47:47;;;;;;;19.73;18.70;;;17.20;99.90;;;;;;5012740;28;20533;-62
2021/10/29 15:50:17;;;;;;;19.70;18.80;;;17.10;99.90;;;;;;5026596;28;20476;-64
2021/10/29 15:52:50;;;;;;;21.00;20.00;;;17.10;99.90;;;;;;5032669;28;20857;-64
2021/10/29 15:55:23;;;;;;;20.17;19.10;;;17.00;99.90;;;;;;5033474;28;20469;-64
2021/10/29 15:57:59;;;;;;;19.10;18.30;;;16.90;99.90;;;;;;5035720;28;20448;-63
2021/10/29 16:00:39;;;;;;;22.30;21.20;;;16.80;99.90;;;;;;5036330;28;20448;-64
2021/10/29 16:03:12;;;;;;;19.83;19.03;;;16.80;99.90;;;;;;5036044;28;20468;-64
2021/10/29 16:19:20;;;;;;;20.17;19.37;;;16.30;99.90;;;;;;5035803;28;20456;-64